sensor_id;sensor_type;location;lat;lon;timestamp;pressure;altitude;pressure_sealevel;temperature
79714;BMP280;69206;51.420;5.400;2023-06-24T00:02:09;102341.84;;;19.60
79714;BMP280;69206;51.420;5.400;2023-06-24T00:04:34;102343.66;;;19.60
79714;BMP280;69206;51.420;5.400;2023-06-24T00:07:00;102394.00;;;19.79
79714;BMP280;69206;51.420;5.400;2023-06-24T00:09:29;102431.84;;;19.90
79714;BMP280;69206;51.420;5.400;2023-06-24T00:11:55;102389.66;;;19.62
79714;BMP280;69206;51.420;5.400;2023-06-24T00:14:22;102430.31;;;19.80
79714;BMP280;69206;51.420;5.400;2023-06-24T00:16:50;102417.00;;;19.72
79714;BMP280;69206;51.420;5.400;2023-06-24T00:19:24;102436.97;;;19.76
79714;BMP280;69206;51.420;5.400;2023-06-24T00:21:51;102433.44;;;19.59
79714;BMP280;69206;51.420;5.400;2023-06-24T00:24:18;102433.94;;;19.63
79714;BMP280;69206;51.420;5.400;2023-06-24T00:26:46;102422.09;;;19.57
79714;BMP280;69206;51.420;5.400;2023-06-24T00:29:12;102422.81;;;19.67
79714;BMP280;69206;51.420;5.400;2023-06-24T00:31:40;102373.28;;;19.33
79714;BMP280;69206;51.420;5.400;2023-06-24T00:34:05;102431.94;;;19.73
79714;BMP280;69206;51.420;5.400;2023-06-24T00:36:30;102439.47;;;19.69
79714;BMP280;69206;51.420;5.400;2023-06-24T00:39:00;102440.28;;;19.70
79714;BMP280;69206;51.420;5.400;2023-06-24T00:41:27;102417.97;;;19.63
79714;BMP280;69206;51.420;5.400;2023-06-24T00:43:52;102441.75;;;19.72
79714;BMP280;69206;51.420;5.400;2023-06-24T00:46:19;102432.66;;;19.75
79714;BMP280;69206;51.420;5.400;2023-06-24T00:48:45;102441.13;;;19.70
79714;BMP280;69206;51.420;5.400;2023-06-24T00:51:10;102408.06;;;19.47
79714;BMP280;69206;51.420;5.400;2023-06-24T00:53:36;102440.94;;;19.64
79714;BMP280;69206;51.420;5.400;2023-06-24T00:56:02;102430.72;;;19.51
79714;BMP280;69206;51.420;5.400;2023-06-24T00:58:35;102345.91;;;19.07
79714;BMP280;69206;51.420;5.400;2023-06-24T01:01:02;102402.88;;;19.30
79714;BMP280;69206;51.420;5.400;2023-06-24T01:03:28;102408.19;;;19.30
79714;BMP280;69206;51.420;5.400;2023-06-24T01:05:54;102395.69;;;19.30
79714;BMP280;69206;51.420;5.400;2023-06-24T01:08:20;102420.84;;;19.36
79714;BMP280;69206;51.420;5.400;2023-06-24T01:10:49;102395.84;;;19.21
79714;BMP280;69206;51.420;5.400;2023-06-24T01:13:15;102372.16;;;19.02
79714;BMP280;69206;51.420;5.400;2023-06-24T01:15:40;102440.50;;;19.35
79714;BMP280;69206;51.420;5.400;2023-06-24T01:18:31;102433.09;;;19.21
79714;BMP280;69206;51.420;5.400;2023-06-24T01:21:14;102413.09;;;19.09
79714;BMP280;69206;51.420;5.400;2023-06-24T01:23:55;102360.38;;;18.71
79714;BMP280;69206;51.420;5.400;2023-06-24T01:26:57;102435.13;;;19.19
79714;BMP280;69206;51.420;5.400;2023-06-24T01:29:33;102436.81;;;19.28
79714;BMP280;69206;51.420;5.400;2023-06-24T01:34:57;102299.66;;;18.41
79714;BMP280;69206;51.420;5.400;2023-06-24T01:37:29;102428.44;;;19.15
79714;BMP280;69206;51.420;5.400;2023-06-24T01:40:12;102412.25;;;19.01
79714;BMP280;69206;51.420;5.400;2023-06-24T01:42:42;102342.41;;;18.48
79714;BMP280;69206;51.420;5.400;2023-06-24T01:45:12;102414.28;;;18.81
79714;BMP280;69206;51.420;5.400;2023-06-24T01:47:43;102366.19;;;18.49
79714;BMP280;69206;51.420;5.400;2023-06-24T01:50:11;102423.38;;;18.71
79714;BMP280;69206;51.420;5.400;2023-06-24T01:52:37;102420.81;;;18.61
79714;BMP280;69206;51.420;5.400;2023-06-24T01:55:06;102395.38;;;18.41
79714;BMP280;69206;51.420;5.400;2023-06-24T01:57:34;102418.94;;;18.54
79714;BMP280;69206;51.420;5.400;2023-06-24T02:00:01;102395.69;;;18.38
79714;BMP280;69206;51.420;5.400;2023-06-24T02:02:32;102424.38;;;18.52
79714;BMP280;69206;51.420;5.400;2023-06-24T02:05:01;102393.28;;;18.27
79714;BMP280;69206;51.420;5.400;2023-06-24T02:07:28;102361.91;;;18.13
79714;BMP280;69206;51.420;5.400;2023-06-24T02:09:56;102365.22;;;18.07
79714;BMP280;69206;51.420;5.400;2023-06-24T02:12:24;102415.88;;;18.31
79714;BMP280;69206;51.420;5.400;2023-06-24T02:14:52;102400.66;;;18.33
79714;BMP280;69206;51.420;5.400;2023-06-24T02:17:19;102412.56;;;18.29
79714;BMP280;69206;51.420;5.400;2023-06-24T02:19:49;102413.09;;;18.33
79714;BMP280;69206;51.420;5.400;2023-06-24T02:22:16;102418.41;;;18.15
79714;BMP280;69206;51.420;5.400;2023-06-24T02:24:42;102398.69;;;18.00
79714;BMP280;69206;51.420;5.400;2023-06-24T02:27:08;102404.84;;;18.01
79714;BMP280;69206;51.420;5.400;2023-06-24T02:29:35;102395.56;;;17.87
79714;BMP280;69206;51.420;5.400;2023-06-24T02:32:02;102366.09;;;17.63
79714;BMP280;69206;51.420;5.400;2023-06-24T02:34:28;102416.50;;;17.90
79714;BMP280;69206;51.420;5.400;2023-06-24T02:36:54;102350.81;;;17.48
79714;BMP280;69206;51.420;5.400;2023-06-24T02:39:20;102415.44;;;17.83
79714;BMP280;69206;51.420;5.400;2023-06-24T02:41:45;102370.34;;;17.56
79714;BMP280;69206;51.420;5.400;2023-06-24T02:44:15;102413.06;;;17.80
79714;BMP280;69206;51.420;5.400;2023-06-24T02:46:44;102400.88;;;17.70
79714;BMP280;69206;51.420;5.400;2023-06-24T02:49:12;102365.66;;;17.50
79714;BMP280;69206;51.420;5.400;2023-06-24T02:51:39;102410.66;;;17.69
79714;BMP280;69206;51.420;5.400;2023-06-24T02:54:06;102391.28;;;17.59
79714;BMP280;69206;51.420;5.400;2023-06-24T02:56:33;102349.50;;;17.34
79714;BMP280;69206;51.420;5.400;2023-06-24T02:58:58;102390.50;;;17.49
79714;BMP280;69206;51.420;5.400;2023-06-24T03:01:24;102390.84;;;17.37
79714;BMP280;69206;51.420;5.400;2023-06-24T03:03:55;102330.84;;;17.00
79714;BMP280;69206;51.420;5.400;2023-06-24T03:06:22;102427.16;;;17.46
79714;BMP280;69206;51.420;5.400;2023-06-24T03:08:49;102399.25;;;17.33
79714;BMP280;69206;51.420;5.400;2023-06-24T03:11:15;102434.09;;;17.47
79714;BMP280;69206;51.420;5.400;2023-06-24T03:13:43;102437.34;;;17.50
79714;BMP280;69206;51.420;5.400;2023-06-24T03:16:09;102432.47;;;17.46
79714;BMP280;69206;51.420;5.400;2023-06-24T03:18:41;102418.53;;;17.34
79714;BMP280;69206;51.420;5.400;2023-06-24T03:21:07;102431.34;;;17.39
79714;BMP280;69206;51.420;5.400;2023-06-24T03:23:33;102389.72;;;17.13
79714;BMP280;69206;51.420;5.400;2023-06-24T03:25:58;102435.44;;;17.33
79714;BMP280;69206;51.420;5.400;2023-06-24T03:28:23;102397.53;;;17.05
79714;BMP280;69206;51.420;5.400;2023-06-24T03:30:49;102426.66;;;17.24
79714;BMP280;69206;51.420;5.400;2023-06-24T03:33:14;102387.09;;;16.94
79714;BMP280;69206;51.420;5.400;2023-06-24T03:35:42;102412.47;;;17.15
79714;BMP280;69206;51.420;5.400;2023-06-24T03:38:08;102406.91;;;17.09
79714;BMP280;69206;51.420;5.400;2023-06-24T03:40:33;102415.72;;;17.00
79714;BMP280;69206;51.420;5.400;2023-06-24T03:42:59;102367.59;;;16.85
79714;BMP280;69206;51.420;5.400;2023-06-24T03:45:24;102382.81;;;16.93
79714;BMP280;69206;51.420;5.400;2023-06-24T03:47:49;102351.72;;;16.76
79714;BMP280;69206;51.420;5.400;2023-06-24T03:50:15;102373.84;;;16.94
79714;BMP280;69206;51.420;5.400;2023-06-24T03:52:40;102373.19;;;16.92
79714;BMP280;69206;51.420;5.400;2023-06-24T03:55:06;102352.28;;;16.70
79714;BMP280;69206;51.420;5.400;2023-06-24T03:57:31;102436.16;;;17.26
79714;BMP280;69206;51.420;5.400;2023-06-24T03:59:56;102403.16;;;17.02
79714;BMP280;69206;51.420;5.400;2023-06-24T04:02:22;102426.16;;;17.11
79714;BMP280;69206;51.420;5.400;2023-06-24T04:04:47;102423.09;;;17.15
79714;BMP280;69206;51.420;5.400;2023-06-24T04:07:15;102436.72;;;17.30
79714;BMP280;69206;51.420;5.400;2023-06-24T04:09:54;102344.06;;;16.73
79714;BMP280;69206;51.420;5.400;2023-06-24T04:12:20;102450.38;;;17.34
79714;BMP280;69206;51.420;5.400;2023-06-24T04:14:45;102423.75;;;17.27
79714;BMP280;69206;51.420;5.400;2023-06-24T04:17:10;102371.78;;;16.97
79714;BMP280;69206;51.420;5.400;2023-06-24T04:19:36;102436.41;;;17.33
79714;BMP280;69206;51.420;5.400;2023-06-24T04:22:01;102450.38;;;17.34
79714;BMP280;69206;51.420;5.400;2023-06-24T04:24:26;102437.50;;;17.39
79714;BMP280;69206;51.420;5.400;2023-06-24T04:26:52;102437.19;;;17.42
79714;BMP280;69206;51.420;5.400;2023-06-24T04:29:17;102410.69;;;17.33
79714;BMP280;69206;51.420;5.400;2023-06-24T04:31:42;102426.50;;;17.34
79714;BMP280;69206;51.420;5.400;2023-06-24T04:34:08;102424.53;;;17.37
79714;BMP280;69206;51.420;5.400;2023-06-24T04:36:34;102399.25;;;17.33
79714;BMP280;69206;51.420;5.400;2023-06-24T04:39:01;102424.31;;;17.47
79714;BMP280;69206;51.420;5.400;2023-06-24T04:41:26;102435.53;;;17.68
79714;BMP280;69206;51.420;5.400;2023-06-24T04:43:53;102451.56;;;17.76
79714;BMP280;69206;51.420;5.400;2023-06-24T04:46:19;102428.88;;;17.64
79714;BMP280;69206;51.420;5.400;2023-06-24T04:48:44;102401.91;;;17.59
79714;BMP280;69206;51.420;5.400;2023-06-24T04:51:11;102437.75;;;17.90
79714;BMP280;69206;51.420;5.400;2023-06-24T04:53:36;102425.41;;;17.81
79714;BMP280;69206;51.420;5.400;2023-06-24T04:56:02;102409.75;;;17.78
79714;BMP280;69206;51.420;5.400;2023-06-24T04:58:27;102408.66;;;17.98
79714;BMP280;69206;51.420;5.400;2023-06-24T05:00:52;102425.66;;;18.05
79714;BMP280;69206;51.420;5.400;2023-06-24T05:03:20;102368.47;;;18.01
79714;BMP280;69206;51.420;5.400;2023-06-24T05:05:46;102418.00;;;18.45
79714;BMP280;69206;51.420;5.400;2023-06-24T05:08:11;102344.38;;;18.20
79714;BMP280;69206;51.420;5.400;2023-06-24T05:10:37;102378.25;;;18.61
79714;BMP280;69206;51.420;5.400;2023-06-24T05:13:02;102405.97;;;18.84
79714;BMP280;69206;51.420;5.400;2023-06-24T05:15:27;102401.50;;;18.85
79714;BMP280;69206;51.420;5.400;2023-06-24T05:17:53;102434.72;;;19.06
79714;BMP280;69206;51.420;5.400;2023-06-24T05:20:18;102368.94;;;18.91
79714;BMP280;69206;51.420;5.400;2023-06-24T05:22:44;102419.31;;;19.26
79714;BMP280;69206;51.420;5.400;2023-06-24T05:25:09;102389.94;;;19.02
79714;BMP280;69206;51.420;5.400;2023-06-24T05:27:34;102410.66;;;19.24
79714;BMP280;69206;51.420;5.400;2023-06-24T05:30:00;102433.22;;;19.53
79714;BMP280;69206;51.420;5.400;2023-06-24T05:32:25;102364.19;;;19.02
79714;BMP280;69206;51.420;5.400;2023-06-24T05:34:51;102406.25;;;19.40
79714;BMP280;69206;51.420;5.400;2023-06-24T05:37:16;102405.59;;;19.46
79714;BMP280;69206;51.420;5.400;2023-06-24T05:39:42;102402.81;;;19.63
79714;BMP280;69206;51.420;5.400;2023-06-24T05:42:07;102400.19;;;19.87
79714;BMP280;69206;51.420;5.400;2023-06-24T05:44:32;102413.34;;;20.05
79714;BMP280;69206;51.420;5.400;2023-06-24T05:46:59;102441.00;;;20.36
79714;BMP280;69206;51.420;5.400;2023-06-24T05:49:24;102444.66;;;20.19
79714;BMP280;69206;51.420;5.400;2023-06-24T05:51:50;102431.34;;;20.27
79714;BMP280;69206;51.420;5.400;2023-06-24T05:54:15;102404.03;;;20.01
79714;BMP280;69206;51.420;5.400;2023-06-24T05:56:40;102390.69;;;20.25
79714;BMP280;69206;51.420;5.400;2023-06-24T05:59:06;102411.66;;;20.44
79714;BMP280;69206;51.420;5.400;2023-06-24T06:01:31;102394.69;;;20.21
79714;BMP280;69206;51.420;5.400;2023-06-24T06:03:57;102425.69;;;20.22
79714;BMP280;69206;51.420;5.400;2023-06-24T06:06:22;102393.16;;;20.02
79714;BMP280;69206;51.420;5.400;2023-06-24T06:08:48;102420.00;;;20.25
79714;BMP280;69206;51.420;5.400;2023-06-24T06:11:13;102418.34;;;20.32
79714;BMP280;69206;51.420;5.400;2023-06-24T06:13:38;102420.00;;;20.33
79714;BMP280;69206;51.420;5.400;2023-06-24T06:16:04;102405.19;;;20.14
79714;BMP280;69206;51.420;5.400;2023-06-24T06:18:29;102406.34;;;20.12
79714;BMP280;69206;51.420;5.400;2023-06-24T06:20:55;102461.69;;;20.34
79714;BMP280;69206;51.420;5.400;2023-06-24T06:23:21;102442.00;;;20.27
79714;BMP280;69206;51.420;5.400;2023-06-24T06:25:46;102433.53;;;20.07
79714;BMP280;69206;51.420;5.400;2023-06-24T06:28:12;102402.50;;;19.98
79714;BMP280;69206;51.420;5.400;2023-06-24T06:30:38;102433.19;;;20.26
79714;BMP280;69206;51.420;5.400;2023-06-24T06:33:04;102452.00;;;20.49
79714;BMP280;69206;51.420;5.400;2023-06-24T06:35:29;102446.03;;;20.47
79714;BMP280;69206;51.420;5.400;2023-06-24T06:37:57;102439.66;;;20.48
79714;BMP280;69206;51.420;5.400;2023-06-24T06:40:24;102435.84;;;20.50
79714;BMP280;69206;51.420;5.400;2023-06-24T06:42:50;102449.66;;;20.62
79714;BMP280;69206;51.420;5.400;2023-06-24T06:45:16;102431.16;;;20.52
79714;BMP280;69206;51.420;5.400;2023-06-24T06:47:41;102464.31;;;20.82
79714;BMP280;69206;51.420;5.400;2023-06-24T06:50:09;102428.31;;;20.62
79714;BMP280;69206;51.420;5.400;2023-06-24T06:52:34;102452.25;;;20.94
79714;BMP280;69206;51.420;5.400;2023-06-24T06:55:00;102462.72;;;21.03
79714;BMP280;69206;51.420;5.400;2023-06-24T06:57:25;102420.59;;;20.83
79714;BMP280;69206;51.420;5.400;2023-06-24T06:59:51;102441.19;;;21.04
79714;BMP280;69206;51.420;5.400;2023-06-24T07:02:17;102466.38;;;21.10
79714;BMP280;69206;51.420;5.400;2023-06-24T07:04:43;102469.16;;;21.24
79714;BMP280;69206;51.420;5.400;2023-06-24T07:07:08;102470.13;;;21.31
79714;BMP280;69206;51.420;5.400;2023-06-24T07:09:35;102468.75;;;21.43
79714;BMP280;69206;51.420;5.400;2023-06-24T07:12:01;102481.00;;;21.60
79714;BMP280;69206;51.420;5.400;2023-06-24T07:14:26;102451.22;;;21.71
79714;BMP280;69206;51.420;5.400;2023-06-24T07:16:51;102451.09;;;21.87
79714;BMP280;69206;51.420;5.400;2023-06-24T07:19:21;102477.00;;;22.09
79714;BMP280;69206;51.420;5.400;2023-06-24T07:21:46;102443.03;;;21.95
79714;BMP280;69206;51.420;5.400;2023-06-24T07:24:11;102483.50;;;22.29
79714;BMP280;69206;51.420;5.400;2023-06-24T07:26:37;102491.84;;;22.34
79714;BMP280;69206;51.420;5.400;2023-06-24T07:29:05;102459.38;;;22.37
79714;BMP280;69206;51.420;5.400;2023-06-24T07:31:31;102470.25;;;22.50
79714;BMP280;69206;51.420;5.400;2023-06-24T07:33:56;102435.25;;;22.23
79714;BMP280;69206;51.420;5.400;2023-06-24T07:36:22;102476.84;;;22.62
79714;BMP280;69206;51.420;5.400;2023-06-24T07:38:47;102473.41;;;22.97
79714;BMP280;69206;51.420;5.400;2023-06-24T07:41:12;102415.81;;;22.72
79714;BMP280;69206;51.420;5.400;2023-06-24T07:43:38;102478.78;;;22.97
79714;BMP280;69206;51.420;5.400;2023-06-24T07:46:04;102439.59;;;23.46
79714;BMP280;69206;51.420;5.400;2023-06-24T07:48:29;102444.88;;;23.54
79714;BMP280;69206;51.420;5.400;2023-06-24T07:50:55;102461.06;;;23.67
79714;BMP280;69206;51.420;5.400;2023-06-24T07:53:20;102428.69;;;23.47
79714;BMP280;69206;51.420;5.400;2023-06-24T07:55:45;102450.47;;;23.59
79714;BMP280;69206;51.420;5.400;2023-06-24T07:58:11;102471.91;;;23.80
79714;BMP280;69206;51.420;5.400;2023-06-24T08:00:36;102440.97;;;24.04
79714;BMP280;69206;51.420;5.400;2023-06-24T08:03:01;102428.47;;;24.45
79714;BMP280;69206;51.420;5.400;2023-06-24T08:05:27;102421.81;;;24.07
79714;BMP280;69206;51.420;5.400;2023-06-24T08:07:53;102462.41;;;24.25
79714;BMP280;69206;51.420;5.400;2023-06-24T08:10:20;102455.59;;;24.50
79714;BMP280;69206;51.420;5.400;2023-06-24T08:12:45;102416.66;;;24.33
79714;BMP280;69206;51.420;5.400;2023-06-24T08:15:11;102430.56;;;24.43
79714;BMP280;69206;51.420;5.400;2023-06-24T08:17:37;102446.50;;;24.51
79714;BMP280;69206;51.420;5.400;2023-06-24T08:20:02;102452.34;;;24.61
79714;BMP280;69206;51.420;5.400;2023-06-24T08:22:29;102437.09;;;24.68
79714;BMP280;69206;51.420;5.400;2023-06-24T08:24:54;102444.97;;;24.76
79714;BMP280;69206;51.420;5.400;2023-06-24T08:27:19;102414.38;;;24.77
79714;BMP280;69206;51.420;5.400;2023-06-24T08:29:45;102427.69;;;24.85
79714;BMP280;69206;51.420;5.400;2023-06-24T08:32:10;102399.56;;;24.88
79714;BMP280;69206;51.420;5.400;2023-06-24T08:34:36;102435.81;;;25.11
79714;BMP280;69206;51.420;5.400;2023-06-24T08:37:01;102402.38;;;24.73
79714;BMP280;69206;51.420;5.400;2023-06-24T08:39:27;102409.63;;;24.79
79714;BMP280;69206;51.420;5.400;2023-06-24T08:41:52;102431.41;;;24.97
79714;BMP280;69206;51.420;5.400;2023-06-24T08:44:19;102422.38;;;25.05
79714;BMP280;69206;51.420;5.400;2023-06-24T08:46:44;102405.56;;;24.96
79714;BMP280;69206;51.420;5.400;2023-06-24T08:49:27;102431.72;;;25.21
79714;BMP280;69206;51.420;5.400;2023-06-24T08:52:04;102435.44;;;25.27
79714;BMP280;69206;51.420;5.400;2023-06-24T08:54:34;102405.31;;;25.64
79714;BMP280;69206;51.420;5.400;2023-06-24T08:57:01;102396.78;;;25.47
79714;BMP280;69206;51.420;5.400;2023-06-24T08:59:30;102424.69;;;25.33
79714;BMP280;69206;51.420;5.400;2023-06-24T09:01:56;102428.66;;;25.96
79714;BMP280;69206;51.420;5.400;2023-06-24T09:04:21;102419.94;;;26.07
79714;BMP280;69206;51.420;5.400;2023-06-24T09:06:46;102405.06;;;25.78
79714;BMP280;69206;51.420;5.400;2023-06-24T09:09:22;102411.28;;;25.66
79714;BMP280;69206;51.420;5.400;2023-06-24T09:11:54;102430.13;;;25.79
79714;BMP280;69206;51.420;5.400;2023-06-24T09:14:21;102406.31;;;25.76
79714;BMP280;69206;51.420;5.400;2023-06-24T09:16:59;102424.28;;;26.08
79714;BMP280;69206;51.420;5.400;2023-06-24T09:19:29;102384.56;;;26.10
79714;BMP280;69206;51.420;5.400;2023-06-24T09:22:08;102368.22;;;25.85
79714;BMP280;69206;51.420;5.400;2023-06-24T09:24:41;102409.91;;;26.46
79714;BMP280;69206;51.420;5.400;2023-06-24T09:27:07;102396.69;;;26.31
79714;BMP280;69206;51.420;5.400;2023-06-24T09:29:35;102403.56;;;26.21
79714;BMP280;69206;51.420;5.400;2023-06-24T09:32:03;102378.56;;;26.01
79714;BMP280;69206;51.420;5.400;2023-06-24T09:34:29;102392.75;;;26.40
79714;BMP280;69206;51.420;5.400;2023-06-24T09:36:56;102387.47;;;26.58
79714;BMP280;69206;51.420;5.400;2023-06-24T09:39:24;102389.38;;;26.51
79714;BMP280;69206;51.420;5.400;2023-06-24T09:42:00;102360.84;;;26.37
79714;BMP280;69206;51.420;5.400;2023-06-24T09:44:27;102386.69;;;26.51
79714;BMP280;69206;51.420;5.400;2023-06-24T09:46:53;102379.44;;;26.89
79714;BMP280;69206;51.420;5.400;2023-06-24T09:49:19;102377.34;;;27.22
79714;BMP280;69206;51.420;5.400;2023-06-24T09:51:47;102364.91;;;26.97
79714;BMP280;69206;51.420;5.400;2023-06-24T09:54:14;102340.53;;;26.79
79714;BMP280;69206;51.420;5.400;2023-06-24T09:56:43;102345.91;;;26.79
79714;BMP280;69206;51.420;5.400;2023-06-24T09:59:12;102386.34;;;27.16
79714;BMP280;69206;51.420;5.400;2023-06-24T10:01:42;102369.44;;;26.96
79714;BMP280;69206;51.420;5.400;2023-06-24T10:04:09;102379.41;;;27.51
79714;BMP280;69206;51.420;5.400;2023-06-24T10:06:35;102344.31;;;27.02
79714;BMP280;69206;51.420;5.400;2023-06-24T10:09:02;102369.81;;;27.06
79714;BMP280;69206;51.420;5.400;2023-06-24T10:11:27;102375.56;;;26.79
79714;BMP280;69206;51.420;5.400;2023-06-24T10:13:53;102375.69;;;26.90
79714;BMP280;69206;51.420;5.400;2023-06-24T10:16:19;102370.38;;;27.15
79714;BMP280;69206;51.420;5.400;2023-06-24T10:18:45;102376.53;;;27.46
79714;BMP280;69206;51.420;5.400;2023-06-24T10:21:11;102366.59;;;27.46
79714;BMP280;69206;51.420;5.400;2023-06-24T10:23:39;102370.50;;;26.95
79714;BMP280;69206;51.420;5.400;2023-06-24T10:26:26;102338.56;;;26.61
79714;BMP280;69206;51.420;5.400;2023-06-24T10:34:27;102362.97;;;27.35
79714;BMP280;69206;51.420;5.400;2023-06-24T10:37:32;102362.19;;;27.70
79714;BMP280;69206;51.420;5.400;2023-06-24T10:39:58;102357.81;;;27.51
79714;BMP280;69206;51.420;5.400;2023-06-24T10:42:40;102372.03;;;27.40
79714;BMP280;69206;51.420;5.400;2023-06-24T10:45:20;102365.31;;;27.49
79714;BMP280;69206;51.420;5.400;2023-06-24T10:47:48;102289.88;;;26.87
79714;BMP280;69206;51.420;5.400;2023-06-24T10:50:16;102280.94;;;26.62
79714;BMP280;69206;51.420;5.400;2023-06-24T10:52:45;102352.09;;;27.41
79714;BMP280;69206;51.420;5.400;2023-06-24T10:55:17;102364.53;;;27.42
79714;BMP280;69206;51.420;5.400;2023-06-24T10:57:43;102267.31;;;26.88
79714;BMP280;69206;51.420;5.400;2023-06-24T11:00:10;102327.34;;;27.26
79714;BMP280;69206;51.420;5.400;2023-06-24T11:02:36;102309.88;;;27.29
79714;BMP280;69206;51.420;5.400;2023-06-24T11:05:14;102342.16;;;27.35
79714;BMP280;69206;51.420;5.400;2023-06-24T11:07:39;102347.16;;;27.56
79714;BMP280;69206;51.420;5.400;2023-06-24T11:10:06;102346.84;;;27.70
79714;BMP280;69206;51.420;5.400;2023-06-24T11:12:33;102333.56;;;27.69
79714;BMP280;69206;51.420;5.400;2023-06-24T11:15:10;102341.38;;;27.77
79714;BMP280;69206;51.420;5.400;2023-06-24T11:17:36;102290.25;;;27.82
79714;BMP280;69206;51.420;5.400;2023-06-24T11:20:06;102298.91;;;27.84
79714;BMP280;69206;51.420;5.400;2023-06-24T11:22:31;102337.53;;;27.84
79714;BMP280;69206;51.420;5.400;2023-06-24T11:24:57;102332.97;;;28.03
79714;BMP280;69206;51.420;5.400;2023-06-24T11:27:26;102327.06;;;27.94
79714;BMP280;69206;51.420;5.400;2023-06-24T11:29:53;102337.31;;;28.04
79714;BMP280;69206;51.420;5.400;2023-06-24T11:32:18;102307.19;;;27.89
79714;BMP280;69206;51.420;5.400;2023-06-24T11:34:44;102271.34;;;27.64
79714;BMP280;69206;51.420;5.400;2023-06-24T11:37:14;102303.56;;;27.77
79714;BMP280;69206;51.420;5.400;2023-06-24T11:39:40;102317.53;;;27.92
79714;BMP280;69206;51.420;5.400;2023-06-24T11:42:07;102301.81;;;27.71
79714;BMP280;69206;51.420;5.400;2023-06-24T11:44:41;102312.16;;;27.92
79714;BMP280;69206;51.420;5.400;2023-06-24T11:47:09;102316.91;;;28.08
79714;BMP280;69206;51.420;5.400;2023-06-24T11:49:49;102278.53;;;27.52
79714;BMP280;69206;51.420;5.400;2023-06-24T11:52:15;102315.47;;;28.23
79714;BMP280;69206;51.420;5.400;2023-06-24T11:54:41;102319.13;;;28.29
79714;BMP280;69206;51.420;5.400;2023-06-24T11:57:08;102275.13;;;28.10
79714;BMP280;69206;51.420;5.400;2023-06-24T11:59:34;102313.41;;;28.37
79714;BMP280;69206;51.420;5.400;2023-06-24T12:01:59;102288.53;;;28.17
79714;BMP280;69206;51.420;5.400;2023-06-24T12:04:29;102285.38;;;28.20
79714;BMP280;69206;51.420;5.400;2023-06-24T12:06:55;102254.06;;;28.19
79714;BMP280;69206;51.420;5.400;2023-06-24T12:09:20;102257.94;;;28.05
79714;BMP280;69206;51.420;5.400;2023-06-24T12:11:45;102306.84;;;28.15
79714;BMP280;69206;51.420;5.400;2023-06-24T12:14:13;102305.09;;;28.20
79714;BMP280;69206;51.420;5.400;2023-06-24T12:16:39;102289.00;;;28.43
79714;BMP280;69206;51.420;5.400;2023-06-24T12:19:06;102270.41;;;28.64
79714;BMP280;69206;51.420;5.400;2023-06-24T12:21:31;102210.53;;;28.49
79714;BMP280;69206;51.420;5.400;2023-06-24T12:23:57;102286.75;;;29.38
79714;BMP280;69206;51.420;5.400;2023-06-24T12:26:22;102289.44;;;29.61
79714;BMP280;69206;51.420;5.400;2023-06-24T12:28:48;102266.06;;;29.21
79714;BMP280;69206;51.420;5.400;2023-06-24T12:31:14;102263.63;;;29.19
79714;BMP280;69206;51.420;5.400;2023-06-24T12:33:40;102284.75;;;29.68
79714;BMP280;69206;51.420;5.400;2023-06-24T12:36:05;102272.44;;;29.26
79714;BMP280;69206;51.420;5.400;2023-06-24T12:38:30;102260.06;;;29.30
79714;BMP280;69206;51.420;5.400;2023-06-24T12:40:57;102189.53;;;29.20
79714;BMP280;69206;51.420;5.400;2023-06-24T12:43:22;102242.75;;;29.93
79714;BMP280;69206;51.420;5.400;2023-06-24T12:45:47;102250.00;;;30.04
79714;BMP280;69206;51.420;5.400;2023-06-24T12:48:13;102260.13;;;29.97
79714;BMP280;69206;51.420;5.400;2023-06-24T12:50:39;102253.13;;;29.85
79714;BMP280;69206;51.420;5.400;2023-06-24T12:53:04;102233.00;;;29.81
79714;BMP280;69206;51.420;5.400;2023-06-24T12:55:30;102198.88;;;30.24
79714;BMP280;69206;51.420;5.400;2023-06-24T12:57:55;102260.97;;;30.58
79714;BMP280;69206;51.420;5.400;2023-06-24T13:00:23;102254.38;;;30.38
79714;BMP280;69206;51.420;5.400;2023-06-24T13:02:49;102246.84;;;29.96
79714;BMP280;69206;51.420;5.400;2023-06-24T13:05:19;102263.53;;;30.04
79714;BMP280;69206;51.420;5.400;2023-06-24T13:07:44;102256.91;;;29.84
79714;BMP280;69206;51.420;5.400;2023-06-24T13:10:10;102237.88;;;29.95
79714;BMP280;69206;51.420;5.400;2023-06-24T13:12:36;102232.09;;;30.03
79714;BMP280;69206;51.420;5.400;2023-06-24T13:15:03;102241.69;;;30.11
79714;BMP280;69206;51.420;5.400;2023-06-24T13:17:30;102229.56;;;30.13
79714;BMP280;69206;51.420;5.400;2023-06-24T13:19:57;102254.28;;;30.17
79714;BMP280;69206;51.420;5.400;2023-06-24T13:22:23;102257.34;;;30.69
79714;BMP280;69206;51.420;5.400;2023-06-24T13:24:49;102239.91;;;30.98
79714;BMP280;69206;51.420;5.400;2023-06-24T13:27:16;102220.88;;;30.60
79714;BMP280;69206;51.420;5.400;2023-06-24T13:29:41;102238.91;;;30.06
79714;BMP280;69206;51.420;5.400;2023-06-24T13:32:07;102219.47;;;30.74
79714;BMP280;69206;51.420;5.400;2023-06-24T13:34:33;102211.25;;;31.07
79714;BMP280;69206;51.420;5.400;2023-06-24T13:36:59;102213.50;;;30.56
79714;BMP280;69206;51.420;5.400;2023-06-24T13:39:24;102233.69;;;30.81
79714;BMP280;69206;51.420;5.400;2023-06-24T13:41:50;102237.78;;;31.43
79714;BMP280;69206;51.420;5.400;2023-06-24T13:44:15;102234.47;;;30.98
79714;BMP280;69206;51.420;5.400;2023-06-24T13:46:41;102220.97;;;31.03
79714;BMP280;69206;51.420;5.400;2023-06-24T13:49:10;102234.41;;;31.15
79714;BMP280;69206;51.420;5.400;2023-06-24T13:51:35;102209.44;;;30.91
79714;BMP280;69206;51.420;5.400;2023-06-24T13:54:01;102210.38;;;31.02
79714;BMP280;69206;51.420;5.400;2023-06-24T13:56:27;102228.75;;;30.78
79714;BMP280;69206;51.420;5.400;2023-06-24T13:58:53;102190.41;;;30.37
79714;BMP280;69206;51.420;5.400;2023-06-24T14:01:19;102187.94;;;30.52
79714;BMP280;69206;51.420;5.400;2023-06-24T14:03:47;102226.56;;;31.13
79714;BMP280;69206;51.420;5.400;2023-06-24T14:06:17;102221.38;;;31.33